createdAt,value
2018-07-19T00:00:07.833Z,46.63
2018-07-19T00:02:38.637Z,47.30
2018-07-19T00:05:09.405Z,47.51
2018-07-19T00:07:40.277Z,46.81
2018-07-19T00:10:10.973Z,47.47
2018-07-19T00:12:41.673Z,47.10
2018-07-19T00:15:12.295Z,47.68
2018-07-19T00:17:42.989Z,47.52
2018-07-19T00:20:13.542Z,47.17
2018-07-19T00:22:44.756Z,47.89
2018-07-19T00:25:15.485Z,48.72
2018-07-19T00:27:46.100Z,48.62
2018-07-19T00:30:16.692Z,48.41
2018-07-19T00:32:47.593Z,47.86
2018-07-19T00:35:18.153Z,47.95
2018-07-19T00:37:49.065Z,47.63
2018-07-19T00:40:19.878Z,47.72
2018-07-19T00:42:50.634Z,47.81
2018-07-19T00:45:21.347Z,48.17
2018-07-19T00:47:51.964Z,47.96
2018-07-19T00:50:22.710Z,47.92
2018-07-19T00:52:53.609Z,48.32
2018-07-19T00:55:24.229Z,47.48
2018-07-19T00:57:55.177Z,48.04
2018-07-19T01:00:25.808Z,47.72
2018-07-19T01:02:56.674Z,47.30
2018-07-19T01:05:27.447Z,47.79
2018-07-19T01:07:58.333Z,47.22
2018-07-19T01:10:28.981Z,47.47
2018-07-19T01:12:59.913Z,47.51
2018-07-19T01:15:30.812Z,47.71
2018-07-19T01:18:01.473Z,48.62
2018-07-19T01:20:32.182Z,48.67
2018-07-19T01:23:02.789Z,48.13
2018-07-19T01:25:33.438Z,48.22
2018-07-19T01:28:04.197Z,47.91
2018-07-19T01:30:34.746Z,47.74
2018-07-19T01:33:05.634Z,47.74
2018-07-19T01:35:36.332Z,47.26
2018-07-19T01:38:07.232Z,47.62
2018-07-19T01:40:37.991Z,47.51
2018-07-19T01:43:08.847Z,47.28
2018-07-19T01:45:39.460Z,47.23
2018-07-19T01:48:10.229Z,47.28
2018-07-19T01:50:41.028Z,46.94
2018-07-19T01:53:11.661Z,47.22
2018-07-19T01:55:42.449Z,47.08
2018-07-19T01:58:13.197Z,47.16
2018-07-19T02:00:43.808Z,47.35
2018-07-19T02:03:14.897Z,47.09
2018-07-19T02:05:45.638Z,47.45
2018-07-19T02:08:16.376Z,47.23
2018-07-19T02:10:48.922Z,47.11
2018-07-19T02:13:20.105Z,46.88
2018-07-19T02:15:50.841Z,47.04
2018-07-19T02:18:21.749Z,46.96
2018-07-19T02:20:52.344Z,46.62
2018-07-19T02:23:23.017Z,46.46
2018-07-19T02:25:53.673Z,47.08
2018-07-19T02:28:24.376Z,46.42
2018-07-19T02:30:55.197Z,46.15
2018-07-19T02:33:25.962Z,46.27
2018-07-19T02:35:56.660Z,46.30
2018-07-19T02:38:27.420Z,46.89
2018-07-19T02:40:58.066Z,47.68
2018-07-19T02:43:28.960Z,47.16
2018-07-19T02:45:59.694Z,47.49
2018-07-19T02:48:30.425Z,46.81
2018-07-19T02:51:01.028Z,46.82
2018-07-19T02:53:31.779Z,46.63
2018-07-19T02:56:02.466Z,47.07
2018-07-19T02:58:33.533Z,46.03
2018-07-19T03:01:04.314Z,46.51
2018-07-19T03:03:35.113Z,46.65
2018-07-19T03:06:05.970Z,46.86
2018-07-19T03:08:36.745Z,46.45
2018-07-19T03:11:07.384Z,46.49
2018-07-19T03:13:38.265Z,46.72
2018-07-19T03:16:08.941Z,46.49
2018-07-19T03:18:39.732Z,47.35
2018-07-19T03:21:10.269Z,46.50
2018-07-19T03:23:41.034Z,47.03
2018-07-19T03:26:11.944Z,46.58
2018-07-19T03:28:42.760Z,46.49
2018-07-19T03:31:13.353Z,46.60
2018-07-19T03:33:44.184Z,46.98
2018-07-19T03:36:14.613Z,46.52
2018-07-19T03:38:45.419Z,46.49
2018-07-19T03:41:16.033Z,45.98
2018-07-19T03:43:46.937Z,46.20
2018-07-19T03:46:17.640Z,46.24
2018-07-19T03:48:48.385Z,45.93
2018-07-19T03:51:19.014Z,46.44
2018-07-19T03:53:50.061Z,46.85
2018-07-19T03:56:20.687Z,46.49
2018-07-19T03:58:51.645Z,45.99
2018-07-19T04:01:22.353Z,45.83
2018-07-19T04:03:52.942Z,46.06
2018-07-19T04:06:23.561Z,46.05
2018-07-19T04:08:54.440Z,46.63
2018-07-19T04:11:25.157Z,46.16
2018-07-19T04:13:55.886Z,45.83
2018-07-19T04:16:26.605Z,46.06
2018-07-19T04:18:57.190Z,45.49
2018-07-19T04:21:27.929Z,45.39
2018-07-19T04:23:58.806Z,45.19
2018-07-19T04:26:29.452Z,45.11
2018-07-19T04:29:00.444Z,45.03
2018-07-19T04:31:30.965Z,45.19
2018-07-19T04:34:01.794Z,44.21
2018-07-19T04:36:32.432Z,44.94
2018-07-19T04:39:06.782Z,43.98
2018-07-19T04:41:37.489Z,44.32
2018-07-19T04:44:09.185Z,44.05
2018-07-19T04:46:39.945Z,43.46
2018-07-19T04:49:11.025Z,43.72
2018-07-19T04:51:41.645Z,44.22
2018-07-19T04:54:12.320Z,43.70
2018-07-19T04:56:42.940Z,42.97
2018-07-19T04:59:13.720Z,41.62
2018-07-19T05:01:44.600Z,41.35
2018-07-19T05:04:15.453Z,41.60
2018-07-19T05:06:46.149Z,40.60
2018-07-19T05:09:17.797Z,39.98
2018-07-19T05:11:48.521Z,40.09
2018-07-19T05:14:18.856Z,39.76
2018-07-19T05:16:49.577Z,40.86
2018-07-19T05:19:20.197Z,40.30
2018-07-19T05:21:50.832Z,40.02
2018-07-19T05:24:21.661Z,39.71
2018-07-19T05:26:52.337Z,39.20
2018-07-19T05:29:23.153Z,39.93
2018-07-19T05:31:53.840Z,39.42
2018-07-19T05:34:24.790Z,39.54
2018-07-19T05:36:55.565Z,39.00
2018-07-19T05:39:26.316Z,40.46
2018-07-19T05:41:57.849Z,40.62
2018-07-19T05:44:29.069Z,41.35
2018-07-19T05:46:59.621Z,40.92
2018-07-19T05:49:30.178Z,41.70
2018-07-19T05:52:00.781Z,42.62
2018-07-19T05:54:31.154Z,42.07
2018-07-19T05:57:01.732Z,41.97
2018-07-19T05:59:32.473Z,41.17
2018-07-19T06:02:03.132Z,40.63
2018-07-19T06:04:33.864Z,39.84
2018-07-19T06:07:04.369Z,41.06
2018-07-19T06:09:35.160Z,39.95
2018-07-19T06:12:05.832Z,40.74
2018-07-19T06:14:38.625Z,40.35
2018-07-19T06:17:09.252Z,40.08
2018-07-19T06:19:39.961Z,40.18
2018-07-19T06:22:10.662Z,40.33
2018-07-19T06:24:41.501Z,40.73
2018-07-19T06:27:12.184Z,40.27
2018-07-19T06:29:43.601Z,40.68
2018-07-19T06:32:14.251Z,40.56
2018-07-19T06:34:45.086Z,40.60
2018-07-19T06:37:15.721Z,40.32
2018-07-19T06:39:46.524Z,40.08
2018-07-19T06:42:16.981Z,40.57
2018-07-19T06:44:48.025Z,41.27
2018-07-19T06:47:18.653Z,39.71
2018-07-19T06:49:48.959Z,40.03
2018-07-19T06:52:19.614Z,39.73
2018-07-19T06:54:50.229Z,40.13
2018-07-19T06:57:20.875Z,39.70
2018-07-19T06:59:51.770Z,39.53
2018-07-19T07:02:22.196Z,39.51
2018-07-19T07:04:53.409Z,39.37
2018-07-19T07:07:23.994Z,39.17
2018-07-19T07:09:54.793Z,39.01
2018-07-19T07:12:25.453Z,38.99
2018-07-19T07:14:56.515Z,39.03
2018-07-19T07:17:27.184Z,38.06
2018-07-19T07:19:58.041Z,37.67
2018-07-19T07:22:28.677Z,37.97
2018-07-19T07:24:59.545Z,37.71
2018-07-19T07:27:30.082Z,37.87
2018-07-19T07:30:00.852Z,38.13
2018-07-19T07:32:31.432Z,38.25
2018-07-19T07:35:02.330Z,37.37
2018-07-19T07:37:33.015Z,38.81
2018-07-19T07:40:04.093Z,37.51
2018-07-19T07:42:34.656Z,38.00
2018-07-19T07:45:05.662Z,38.15
2018-07-19T07:47:36.261Z,38.07
2018-07-19T07:50:07.167Z,37.07
2018-07-19T07:52:37.864Z,37.83
2018-07-19T07:55:08.774Z,37.27
2018-07-19T07:57:39.401Z,36.46
2018-07-19T08:00:11.073Z,38.09
2018-07-19T08:02:41.381Z,38.25
2018-07-19T08:05:12.501Z,37.05
2018-07-19T08:07:43.005Z,38.06
2018-07-19T08:10:13.517Z,39.74
2018-07-19T08:12:43.889Z,40.37
2018-07-19T08:15:14.506Z,40.55
2018-07-19T08:17:44.868Z,39.40
2018-07-19T08:20:15.593Z,40.30
2018-07-19T08:22:45.864Z,39.40
2018-07-19T08:25:16.276Z,40.02
2018-07-19T08:27:47.639Z,40.52
2018-07-19T08:30:18.165Z,40.99
2018-07-19T08:32:48.581Z,41.13
2018-07-19T08:35:20.519Z,40.04
2018-07-19T08:37:50.977Z,38.37
2018-07-19T08:40:21.485Z,37.19
2018-07-19T08:42:52.728Z,36.70
2018-07-19T08:45:23.178Z,36.24
2018-07-19T08:47:53.834Z,37.15
2018-07-19T08:50:24.318Z,37.24
2018-07-19T08:52:54.644Z,37.76
2018-07-19T08:55:25.016Z,38.08
2018-07-19T08:57:55.736Z,37.47
2018-07-19T09:00:26.226Z,36.56
2018-07-19T09:02:56.821Z,36.21
2018-07-19T09:05:27.473Z,36.02
2018-07-19T09:07:59.323Z,35.36
2018-07-19T09:10:29.803Z,35.59
2018-07-19T09:13:01.309Z,35.52
2018-07-19T09:15:32.687Z,34.78
2018-07-19T09:18:03.852Z,34.56
2018-07-19T09:20:35.188Z,33.76
2018-07-19T09:23:05.760Z,33.69
2018-07-19T09:25:36.080Z,33.01
2018-07-19T09:28:08.631Z,34.10
2018-07-19T09:30:38.936Z,34.05
2018-07-19T09:33:09.386Z,34.34
2018-07-19T09:35:39.765Z,34.51
2018-07-19T09:38:10.320Z,35.82
2018-07-19T09:40:40.790Z,36.11
2018-07-19T09:43:11.587Z,34.18
2018-07-19T09:45:42.327Z,34.27
2018-07-19T09:48:14.149Z,33.58
2018-07-19T09:50:44.552Z,32.67
2018-07-19T09:53:15.466Z,31.35
2018-07-19T09:55:46.248Z,31.11
2018-07-19T09:58:17.695Z,33.68
2018-07-19T10:01:20.633Z,32.41
2018-07-19T10:03:52.211Z,32.37
2018-07-19T10:06:22.789Z,34.36
2018-07-19T10:08:53.521Z,31.99
2018-07-19T10:11:24.236Z,33.63
2018-07-19T10:13:55.148Z,33.56
2018-07-19T10:16:25.515Z,33.22
2018-07-19T10:18:56.274Z,31.12
2018-07-19T10:21:27.010Z,31.78
2018-07-19T10:23:57.854Z,33.31
2018-07-19T10:26:28.322Z,31.10
2018-07-19T10:28:59.125Z,30.53
2018-07-19T10:31:29.912Z,32.66
2018-07-19T10:34:00.903Z,29.64
2018-07-19T10:36:31.554Z,29.62
2018-07-19T10:39:02.282Z,29.63
2018-07-19T10:41:35.937Z,29.81
2018-07-19T10:44:06.643Z,30.49
2018-07-19T10:46:37.342Z,31.47
2018-07-19T10:49:08.429Z,29.41
2018-07-19T10:51:39.197Z,31.34
2018-07-19T10:54:09.841Z,31.95
2018-07-19T10:56:40.502Z,30.67
2018-07-19T10:59:10.646Z,30.52
2018-07-19T11:01:41.282Z,30.53
2018-07-19T11:04:12.196Z,31.51
2018-07-19T11:06:42.777Z,29.82
2018-07-19T11:09:13.487Z,30.42
2018-07-19T11:11:44.386Z,31.36
2018-07-19T11:14:14.759Z,30.88
2018-07-19T11:16:45.025Z,30.77
2018-07-19T11:19:15.701Z,29.57
2018-07-19T11:21:46.017Z,29.76
2018-07-19T11:24:16.909Z,29.99
2018-07-19T11:26:47.401Z,30.62
2018-07-19T11:29:17.909Z,31.90
2018-07-19T11:31:48.214Z,30.46
2018-07-19T11:34:19.260Z,29.02
2018-07-19T11:36:49.789Z,30.19
2018-07-19T11:39:20.856Z,30.66
2018-07-19T11:41:51.452Z,31.49
2018-07-19T11:44:21.963Z,29.70
2018-07-19T11:46:52.774Z,31.10
2018-07-19T11:49:23.316Z,30.96
2018-07-19T11:51:54.061Z,30.06
2018-07-19T11:54:25.153Z,30.09
2018-07-19T11:56:55.955Z,31.17
2018-07-19T11:59:26.072Z,30.75
2018-07-19T12:01:56.349Z,29.93
2018-07-19T12:04:26.697Z,28.58
2018-07-19T12:06:57.117Z,28.69
2018-07-19T12:09:27.624Z,29.14
2018-07-19T12:11:58.353Z,29.65
2018-07-19T12:14:28.889Z,29.10
2018-07-19T12:16:59.785Z,32.94
2018-07-19T12:19:30.304Z,29.93
2018-07-19T12:22:01.084Z,29.45
2018-07-19T12:24:31.881Z,29.08
2018-07-19T12:27:03.590Z,31.64
2018-07-19T12:29:34.168Z,30.36
2018-07-19T12:32:05.085Z,30.65
2018-07-19T12:34:35.507Z,30.83
2018-07-19T12:37:05.971Z,31.91
2018-07-19T12:39:36.777Z,32.02
2018-07-19T12:42:07.641Z,32.15
2018-07-19T12:44:39.431Z,32.75
2018-07-19T12:47:10.996Z,32.68
2018-07-19T12:49:41.357Z,31.94
2018-07-19T12:52:12.183Z,33.03
2018-07-19T12:54:43.021Z,31.59
2018-07-19T12:57:14.017Z,31.76
2018-07-19T12:59:44.456Z,31.02
2018-07-19T13:02:15.880Z,30.84
2018-07-19T13:04:46.205Z,30.94
2018-07-19T13:07:17.297Z,31.15
2018-07-19T13:09:48.143Z,30.06
2018-07-19T13:12:19.103Z,29.52
2018-07-19T13:14:50.089Z,29.29
2018-07-19T13:17:20.837Z,28.97
2018-07-19T13:19:51.633Z,30.18
2018-07-19T13:22:22.579Z,30.06
2018-07-19T13:24:53.285Z,31.16
2018-07-19T13:27:23.658Z,31.78
2018-07-19T13:29:53.925Z,30.51
2018-07-19T13:32:24.256Z,31.09
2018-07-19T13:34:54.585Z,30.91
2018-07-19T13:37:25.432Z,30.23
2018-07-19T13:39:56.184Z,30.66
2018-07-19T13:42:26.789Z,30.61
2018-07-19T13:44:57.406Z,31.43
2018-07-19T13:47:28.073Z,32.53
2018-07-19T13:49:58.379Z,32.49
2018-07-19T13:52:44.940Z,31.97
2018-07-19T13:55:15.229Z,33.50
2018-07-19T13:57:46.050Z,34.63
2018-07-19T14:00:16.580Z,33.56
2018-07-19T14:02:47.485Z,33.19
2018-07-19T14:05:17.752Z,33.50
2018-07-19T14:07:48.675Z,33.94
2018-07-19T14:10:19.374Z,33.34
2018-07-19T14:12:50.303Z,32.69
2018-07-19T14:15:21.480Z,31.64
2018-07-19T14:17:52.396Z,33.28
2018-07-19T14:20:23.105Z,34.18
2018-07-19T14:22:53.821Z,33.83
2018-07-19T14:25:24.621Z,33.42
2018-07-19T14:27:55.264Z,33.79
2018-07-19T14:30:25.887Z,33.94
2018-07-19T14:32:56.817Z,34.91
2018-07-19T14:35:28.945Z,33.75
2018-07-19T14:37:59.721Z,34.57
2018-07-19T14:40:30.372Z,33.32
2018-07-19T14:43:00.652Z,34.23
2018-07-19T14:45:31.405Z,33.60
2018-07-19T14:48:02.297Z,34.30
2018-07-19T14:50:32.944Z,34.50
2018-07-19T14:53:03.753Z,34.75
2018-07-19T14:55:34.501Z,34.20
2018-07-19T14:58:04.860Z,33.79
2018-07-19T15:00:35.229Z,33.78
2018-07-19T15:03:05.793Z,33.26
2018-07-19T15:05:36.114Z,33.80
2018-07-19T15:08:06.612Z,34.32
2018-07-19T15:10:36.848Z,34.54
2018-07-19T15:13:07.178Z,33.29
2018-07-19T15:15:37.688Z,34.88
2018-07-19T15:18:08.840Z,33.97
2018-07-19T15:20:39.131Z,35.20
2018-07-19T15:23:09.664Z,34.58
2018-07-19T15:25:40.311Z,34.49
2018-07-19T15:28:10.891Z,34.93
2018-07-19T15:30:41.501Z,35.24
2018-07-19T15:33:12.172Z,35.69
2018-07-19T15:35:42.424Z,35.56
2018-07-19T15:38:13.061Z,36.04
2018-07-19T15:40:43.358Z,35.56
2018-07-19T15:43:13.781Z,36.02
2018-07-19T15:45:44.130Z,36.27
2018-07-19T15:48:14.873Z,36.34
2018-07-19T15:50:45.206Z,36.31
2018-07-19T15:53:15.914Z,36.85
2018-07-19T15:55:46.228Z,37.43
2018-07-19T15:58:17.317Z,37.04
2018-07-19T16:00:47.604Z,38.37
2018-07-19T16:03:18.308Z,38.60
2018-07-19T16:05:48.870Z,39.04
2018-07-19T16:08:19.568Z,40.04
2018-07-19T16:10:50.084Z,40.39
2018-07-19T16:13:20.801Z,40.16
2018-07-19T16:15:51.501Z,39.82
2018-07-19T16:18:22.293Z,39.48
2018-07-19T16:20:52.777Z,39.27
2018-07-19T16:23:24.073Z,39.23
2018-07-19T16:25:54.677Z,38.55
2018-07-19T16:28:25.478Z,38.47
2018-07-19T16:30:56.120Z,39.79
2018-07-19T16:33:26.921Z,39.58
2018-07-19T16:35:57.596Z,40.01
2018-07-19T16:38:28.037Z,40.15
2018-07-19T16:40:58.339Z,40.71
2018-07-19T16:43:29.308Z,40.54
2018-07-19T16:46:00.063Z,41.17
2018-07-19T16:48:30.846Z,41.58
2018-07-19T16:51:01.429Z,42.52
2018-07-19T16:53:32.184Z,42.86
2018-07-19T16:56:02.815Z,42.97
2018-07-19T16:58:33.648Z,43.27
2018-07-19T17:01:04.272Z,42.67
2018-07-19T17:03:35.037Z,42.77
2018-07-19T17:06:05.673Z,42.66
2018-07-19T17:08:37.444Z,43.13
2018-07-19T17:11:08.326Z,43.80
2018-07-19T17:13:39.249Z,44.70
2018-07-19T17:16:10.881Z,44.80
2018-07-19T17:18:41.985Z,44.72
2018-07-19T17:21:12.632Z,44.80
2018-07-19T17:23:43.389Z,45.20
2018-07-19T17:26:14.100Z,45.82
2018-07-19T17:28:45.350Z,46.18
2018-07-19T17:31:15.503Z,45.91
2018-07-19T17:33:46.277Z,46.86
2018-07-19T17:36:16.788Z,46.70
2018-07-19T17:38:47.827Z,46.68
2018-07-19T17:41:18.476Z,46.46
2018-07-19T17:43:49.707Z,47.29
2018-07-19T17:46:21.365Z,47.65
2018-07-19T17:48:51.897Z,47.19
2018-07-19T17:51:23.453Z,48.34
2018-07-19T17:53:54.252Z,47.35
2018-07-19T17:56:24.897Z,48.08
2018-07-19T17:58:55.936Z,48.60
2018-07-19T18:01:26.381Z,49.13
2018-07-19T18:03:57.105Z,48.84
2018-07-19T18:06:27.488Z,49.25
2018-07-19T18:08:58.101Z,49.10
2018-07-19T18:11:28.782Z,49.04
2018-07-19T18:13:59.489Z,48.79
2018-07-19T18:16:30.090Z,49.00
2018-07-19T18:19:00.748Z,48.77
2018-07-19T18:21:31.429Z,49.42
2018-07-19T18:24:02.229Z,48.83
2018-07-19T18:26:32.909Z,49.53
2018-07-19T18:29:03.802Z,49.78
2018-07-19T18:31:34.394Z,49.97
2018-07-19T18:34:05.479Z,49.72
2018-07-19T18:36:36.133Z,49.23
2018-07-19T18:39:11.896Z,49.50
2018-07-19T18:41:42.893Z,49.65
2018-07-19T18:44:13.897Z,49.33
2018-07-19T18:46:44.772Z,50.02
2018-07-19T18:49:18.017Z,50.30
2018-07-19T18:51:48.709Z,50.13
2018-07-19T18:54:19.309Z,49.65
2018-07-19T18:56:50.050Z,49.77
2018-07-19T18:59:20.897Z,49.98
2018-07-19T19:01:51.476Z,50.25
2018-07-19T19:04:22.299Z,50.03
2018-07-19T19:06:52.941Z,51.10
2018-07-19T19:09:23.690Z,50.62
2018-07-19T19:11:54.191Z,50.78
2018-07-19T19:14:25.028Z,50.63
2018-07-19T19:16:55.339Z,51.06
2018-07-19T19:19:26.496Z,50.14
2018-07-19T19:21:56.974Z,50.96
2018-07-19T19:24:29.297Z,50.83
2018-07-19T19:27:00.232Z,50.52
2018-07-19T19:29:33.772Z,51.40
2018-07-19T19:32:06.371Z,51.53
2018-07-19T19:34:36.929Z,50.76
2018-07-19T19:37:07.629Z,51.12
2018-07-19T19:39:38.650Z,51.33
2018-07-19T19:42:09.477Z,50.67
2018-07-19T19:44:42.829Z,50.92
2018-07-19T19:47:13.613Z,51.59
2018-07-19T19:49:44.834Z,51.64
2018-07-19T19:52:16.022Z,51.71
2018-07-19T19:54:46.692Z,51.20
2018-07-19T19:57:17.105Z,51.32
2018-07-19T19:59:47.549Z,51.93
2018-07-19T20:02:18.329Z,51.52
2018-07-19T20:04:49.982Z,51.98
2018-07-19T20:07:20.553Z,51.33
2018-07-19T20:09:51.185Z,51.93
2018-07-19T20:12:21.686Z,52.09
2018-07-19T20:14:52.685Z,51.99
2018-07-19T20:17:23.313Z,52.36
2018-07-19T20:19:54.183Z,52.22
2018-07-19T20:22:24.785Z,52.42
2018-07-19T20:24:55.925Z,53.06
2018-07-19T20:27:25.964Z,52.55
2018-07-19T20:29:56.668Z,53.05
2018-07-19T20:32:27.403Z,53.44
2018-07-19T20:34:58.232Z,53.06
2018-07-19T20:37:28.934Z,52.51
2018-07-19T20:39:59.753Z,52.46
2018-07-19T20:42:30.462Z,53.07
2018-07-19T20:45:01.525Z,53.41
2018-07-19T20:47:32.113Z,52.98
2018-07-19T20:50:03.158Z,53.19
2018-07-19T20:52:33.944Z,52.89
2018-07-19T20:55:04.818Z,52.52
2018-07-19T20:57:35.557Z,52.22
2018-07-19T21:00:07.320Z,52.76
